sensor_id;sensor_type;location;lat;lon;timestamp;temperature;humidity
75489;HTU21D;64069;46.396;48.102;2023-02-03T00:01:19;-0.83;81.28
75489;HTU21D;64069;46.396;48.102;2023-02-03T00:03:45;-0.84;81.49
75489;HTU21D;64069;46.396;48.102;2023-02-03T00:06:11;-0.84;81.65
75489;HTU21D;64069;46.396;48.102;2023-02-03T00:08:37;-0.84;81.75
75489;HTU21D;64069;46.396;48.102;2023-02-03T00:11:03;-0.85;82.04
75489;HTU21D;64069;46.396;48.102;2023-02-03T00:13:30;-0.85;82.10
75489;HTU21D;64069;46.396;48.102;2023-02-03T00:15:55;-0.87;82.39
75489;HTU21D;64069;46.396;48.102;2023-02-03T00:18:21;-0.87;82.64
75489;HTU21D;64069;46.396;48.102;2023-02-03T00:20:47;-0.86;82.72
75489;HTU21D;64069;46.396;48.102;2023-02-03T00:23:13;-0.87;82.82
75489;HTU21D;64069;46.396;48.102;2023-02-03T00:25:39;-0.89;83.04
75489;HTU21D;64069;46.396;48.102;2023-02-03T00:28:05;-0.88;83.10
75489;HTU21D;64069;46.396;48.102;2023-02-03T00:30:35;-0.88;83.40
75489;HTU21D;64069;46.396;48.102;2023-02-03T00:33:02;-0.89;83.64
75489;HTU21D;64069;46.396;48.102;2023-02-03T00:35:28;-0.89;83.68
75489;HTU21D;64069;46.396;48.102;2023-02-03T00:37:56;-0.90;83.85
75489;HTU21D;64069;46.396;48.102;2023-02-03T00:40:24;-0.89;83.94
75489;HTU21D;64069;46.396;48.102;2023-02-03T00:42:51;-0.89;84.14
75489;HTU21D;64069;46.396;48.102;2023-02-03T00:45:18;-0.89;84.24
75489;HTU21D;64069;46.396;48.102;2023-02-03T00:47:44;-0.87;84.36
75489;HTU21D;64069;46.396;48.102;2023-02-03T00:50:10;-0.88;84.68
75489;HTU21D;64069;46.396;48.102;2023-02-03T00:52:36;-0.87;84.88
75489;HTU21D;64069;46.396;48.102;2023-02-03T00:55:03;-0.86;84.92
75489;HTU21D;64069;46.396;48.102;2023-02-03T00:57:29;-0.85;84.93
75489;HTU21D;64069;46.396;48.102;2023-02-03T00:59:55;-0.85;84.97
75489;HTU21D;64069;46.396;48.102;2023-02-03T01:02:23;-0.82;84.93
75489;HTU21D;64069;46.396;48.102;2023-02-03T01:04:50;-0.80;84.92
75489;HTU21D;64069;46.396;48.102;2023-02-03T01:07:17;-0.79;85.12
75489;HTU21D;64069;46.396;48.102;2023-02-03T01:09:43;-0.76;85.13
75489;HTU21D;64069;46.396;48.102;2023-02-03T01:12:09;-0.73;85.41
75489;HTU21D;64069;46.396;48.102;2023-02-03T01:14:35;-0.74;85.84
75489;HTU21D;64069;46.396;48.102;2023-02-03T01:17:03;-0.73;86.18
75489;HTU21D;64069;46.396;48.102;2023-02-03T01:19:29;-0.73;86.14
75489;HTU21D;64069;46.396;48.102;2023-02-03T01:21:55;-0.70;86.27
75489;HTU21D;64069;46.396;48.102;2023-02-03T01:24:21;-0.68;86.81
75489;HTU21D;64069;46.396;48.102;2023-02-03T01:26:47;-0.67;86.91
75489;HTU21D;64069;46.396;48.102;2023-02-03T01:29:13;-0.66;86.94
75489;HTU21D;64069;46.396;48.102;2023-02-03T01:31:40;-0.64;86.98
75489;HTU21D;64069;46.396;48.102;2023-02-03T01:34:11;-0.64;86.89
75489;HTU21D;64069;46.396;48.102;2023-02-03T01:36:37;-0.61;86.77
75489;HTU21D;64069;46.396;48.102;2023-02-03T01:39:04;-0.58;86.65
75489;HTU21D;64069;46.396;48.102;2023-02-03T01:41:33;-0.57;86.63
75489;HTU21D;64069;46.396;48.102;2023-02-03T01:44:01;-0.57;86.70
75489;HTU21D;64069;46.396;48.102;2023-02-03T01:46:43;-0.56;86.81
75489;HTU21D;64069;46.396;48.102;2023-02-03T01:49:16;-0.57;87.07
75489;HTU21D;64069;46.396;48.102;2023-02-03T01:51:44;-0.58;87.45
75489;HTU21D;64069;46.396;48.102;2023-02-03T01:54:14;-0.60;87.57
75489;HTU21D;64069;46.396;48.102;2023-02-03T01:56:46;-0.61;88.03
75489;HTU21D;64069;46.396;48.102;2023-02-03T01:59:15;-0.64;88.19
75489;HTU21D;64069;46.396;48.102;2023-02-03T02:01:43;-0.65;88.60
75489;HTU21D;64069;46.396;48.102;2023-02-03T02:04:09;-0.67;88.61
75489;HTU21D;64069;46.396;48.102;2023-02-03T02:06:36;-0.67;88.75
75489;HTU21D;64069;46.396;48.102;2023-02-03T02:09:02;-0.67;89.29
75489;HTU21D;64069;46.396;48.102;2023-02-03T02:11:29;-0.68;89.18
75489;HTU21D;64069;46.396;48.102;2023-02-03T02:13:58;-0.69;89.06
75489;HTU21D;64069;46.396;48.102;2023-02-03T02:19:34;-0.67;89.02
75489;HTU21D;64069;46.396;48.102;2023-02-03T02:22:11;-0.66;88.83
75489;HTU21D;64069;46.396;48.102;2023-02-03T02:33:39;-0.64;88.61
75489;HTU21D;64069;46.396;48.102;2023-02-03T02:39:08;-0.65;88.55
75489;HTU21D;64069;46.396;48.102;2023-02-03T02:41:55;-0.64;88.57
75489;HTU21D;64069;46.396;48.102;2023-02-03T02:44:31;-0.65;88.49
75489;HTU21D;64069;46.396;48.102;2023-02-03T02:47:05;-0.65;88.49
75489;HTU21D;64069;46.396;48.102;2023-02-03T02:49:43;-0.66;88.46
75489;HTU21D;64069;46.396;48.102;2023-02-03T02:52:13;-0.66;88.39
75489;HTU21D;64069;46.396;48.102;2023-02-03T02:54:44;-0.64;88.32
75489;HTU21D;64069;46.396;48.102;2023-02-03T02:57:12;-0.64;88.31
75489;HTU21D;64069;46.396;48.102;2023-02-03T02:59:39;-0.66;88.12
75489;HTU21D;64069;46.396;48.102;2023-02-03T03:02:07;-0.67;88.09
75489;HTU21D;64069;46.396;48.102;2023-02-03T03:04:34;-0.67;88.14
75489;HTU21D;64069;46.396;48.102;2023-02-03T03:07:07;-0.66;88.09
75489;HTU21D;64069;46.396;48.102;2023-02-03T03:09:49;-0.67;88.06
75489;HTU21D;64069;46.396;48.102;2023-02-03T03:12:18;-0.69;88.06
75489;HTU21D;64069;46.396;48.102;2023-02-03T03:14:49;-0.73;88.12
75489;HTU21D;64069;46.396;48.102;2023-02-03T03:17:23;-0.74;88.14
75489;HTU21D;64069;46.396;48.102;2023-02-03T03:19:55;-0.73;88.09
75489;HTU21D;64069;46.396;48.102;2023-02-03T03:22:35;-0.74;88.04
75489;HTU21D;64069;46.396;48.102;2023-02-03T03:25:10;-0.76;88.06
75489;HTU21D;64069;46.396;48.102;2023-02-03T03:27:40;-0.79;88.04
75489;HTU21D;64069;46.396;48.102;2023-02-03T03:30:12;-0.77;88.00
75489;HTU21D;64069;46.396;48.102;2023-02-03T03:32:39;-0.79;87.99
75489;HTU21D;64069;46.396;48.102;2023-02-03T03:35:06;-0.81;87.97
75489;HTU21D;64069;46.396;48.102;2023-02-03T03:37:36;-0.81;88.00
75489;HTU21D;64069;46.396;48.102;2023-02-03T03:40:11;-0.82;88.00
75489;HTU21D;64069;46.396;48.102;2023-02-03T03:42:50;-0.85;87.84
75489;HTU21D;64069;46.396;48.102;2023-02-03T03:48:03;-0.88;87.98
75489;HTU21D;64069;46.396;48.102;2023-02-03T03:50:34;-0.83;87.93
75489;HTU21D;64069;46.396;48.102;2023-02-03T03:53:03;-0.82;87.93
75489;HTU21D;64069;46.396;48.102;2023-02-03T03:55:32;-0.81;87.92
75489;HTU21D;64069;46.396;48.102;2023-02-03T03:58:02;-0.79;87.95
75489;HTU21D;64069;46.396;48.102;2023-02-03T04:00:31;-0.76;87.93
75489;HTU21D;64069;46.396;48.102;2023-02-03T04:03:03;-0.76;87.93
75489;HTU21D;64069;46.396;48.102;2023-02-03T04:05:31;-0.75;87.96
75489;HTU21D;64069;46.396;48.102;2023-02-03T04:07:58;-0.72;87.98
75489;HTU21D;64069;46.396;48.102;2023-02-03T04:10:34;-0.70;87.99
75489;HTU21D;64069;46.396;48.102;2023-02-03T04:13:01;-0.71;87.98
75489;HTU21D;64069;46.396;48.102;2023-02-03T04:15:28;-0.68;87.96
75489;HTU21D;64069;46.396;48.102;2023-02-03T04:17:54;-0.66;87.92
75489;HTU21D;64069;46.396;48.102;2023-02-03T04:20:23;-0.68;87.96
75489;HTU21D;64069;46.396;48.102;2023-02-03T04:22:49;-0.69;88.02
75489;HTU21D;64069;46.396;48.102;2023-02-03T04:25:15;-0.68;88.05
75489;HTU21D;64069;46.396;48.102;2023-02-03T04:27:41;-0.66;87.99
75489;HTU21D;64069;46.396;48.102;2023-02-03T04:30:08;-0.68;88.02
75489;HTU21D;64069;46.396;48.102;2023-02-03T04:32:34;-0.65;88.00
75489;HTU21D;64069;46.396;48.102;2023-02-03T04:35:02;-0.65;87.96
75489;HTU21D;64069;46.396;48.102;2023-02-03T04:37:28;-0.67;87.95
75489;HTU21D;64069;46.396;48.102;2023-02-03T04:39:54;-0.66;88.04
75489;HTU21D;64069;46.396;48.102;2023-02-03T04:42:21;-0.67;88.09
75489;HTU21D;64069;46.396;48.102;2023-02-03T04:44:47;-0.67;88.15
75489;HTU21D;64069;46.396;48.102;2023-02-03T04:47:14;-0.69;88.34
75489;HTU21D;64069;46.396;48.102;2023-02-03T04:49:40;-0.68;88.32
75489;HTU21D;64069;46.396;48.102;2023-02-03T04:52:06;-0.69;88.38
75489;HTU21D;64069;46.396;48.102;2023-02-03T04:54:32;-0.67;88.32
75489;HTU21D;64069;46.396;48.102;2023-02-03T04:56:59;-0.62;88.25
75489;HTU21D;64069;46.396;48.102;2023-02-03T04:59:25;-0.61;88.19
75489;HTU21D;64069;46.396;48.102;2023-02-03T05:01:51;-0.57;88.12
75489;HTU21D;64069;46.396;48.102;2023-02-03T05:04:17;-0.55;88.09
75489;HTU21D;64069;46.396;48.102;2023-02-03T05:06:42;-0.53;88.13
75489;HTU21D;64069;46.396;48.102;2023-02-03T05:09:08;-0.54;88.18
75489;HTU21D;64069;46.396;48.102;2023-02-03T05:11:34;-0.50;88.15
75489;HTU21D;64069;46.396;48.102;2023-02-03T05:14:00;-0.46;88.22
75489;HTU21D;64069;46.396;48.102;2023-02-03T05:16:26;-0.39;88.22
75489;HTU21D;64069;46.396;48.102;2023-02-03T05:18:52;-0.34;88.17
75489;HTU21D;64069;46.396;48.102;2023-02-03T05:21:18;-0.31;88.14
75489;HTU21D;64069;46.396;48.102;2023-02-03T05:23:44;-0.30;88.13
75489;HTU21D;64069;46.396;48.102;2023-02-03T05:26:10;-0.25;88.13
75489;HTU21D;64069;46.396;48.102;2023-02-03T05:28:37;-0.20;88.03
75489;HTU21D;64069;46.396;48.102;2023-02-03T05:31:03;-0.16;87.93
75489;HTU21D;64069;46.396;48.102;2023-02-03T05:33:29;-0.12;87.84
75489;HTU21D;64069;46.396;48.102;2023-02-03T05:35:56;-0.11;87.79
75489;HTU21D;64069;46.396;48.102;2023-02-03T05:38:22;-0.10;87.75
75489;HTU21D;64069;46.396;48.102;2023-02-03T05:40:50;-0.10;87.75
75489;HTU21D;64069;46.396;48.102;2023-02-03T05:43:34;-0.12;87.78
75489;HTU21D;64069;46.396;48.102;2023-02-03T05:46:01;-0.17;87.82
75489;HTU21D;64069;46.396;48.102;2023-02-03T05:48:27;-0.14;87.86
75489;HTU21D;64069;46.396;48.102;2023-02-03T05:50:53;-0.12;87.80
75489;HTU21D;64069;46.396;48.102;2023-02-03T05:53:19;-0.08;87.73
75489;HTU21D;64069;46.396;48.102;2023-02-03T05:55:45;-0.05;87.66
75489;HTU21D;64069;46.396;48.102;2023-02-03T05:58:11;-0.08;87.69
75489;HTU21D;64069;46.396;48.102;2023-02-03T06:00:37;-0.02;87.70
75489;HTU21D;64069;46.396;48.102;2023-02-03T06:03:03;0.04;87.60
75489;HTU21D;64069;46.396;48.102;2023-02-03T06:05:30;0.16;87.42
75489;HTU21D;64069;46.396;48.102;2023-02-03T06:07:57;0.20;87.17
75489;HTU21D;64069;46.396;48.102;2023-02-03T06:10:23;0.28;87.15
75489;HTU21D;64069;46.396;48.102;2023-02-03T06:12:50;0.39;86.96
75489;HTU21D;64069;46.396;48.102;2023-02-03T06:15:16;0.48;86.74
75489;HTU21D;64069;46.396;48.102;2023-02-03T06:17:46;0.60;86.61
75489;HTU21D;64069;46.396;48.102;2023-02-03T06:20:15;0.65;86.41
75489;HTU21D;64069;46.396;48.102;2023-02-03T06:22:41;0.73;86.32
75489;HTU21D;64069;46.396;48.102;2023-02-03T06:25:08;0.78;86.16
75489;HTU21D;64069;46.396;48.102;2023-02-03T06:27:34;0.82;86.18
75489;HTU21D;64069;46.396;48.102;2023-02-03T06:30:01;0.90;86.03
75489;HTU21D;64069;46.396;48.102;2023-02-03T06:32:27;0.91;85.90
75489;HTU21D;64069;46.396;48.102;2023-02-03T06:34:53;0.90;85.90
75489;HTU21D;64069;46.396;48.102;2023-02-03T06:37:19;0.90;85.93
75489;HTU21D;64069;46.396;48.102;2023-02-03T06:39:45;0.89;85.92
75489;HTU21D;64069;46.396;48.102;2023-02-03T06:42:11;0.90;85.98
75489;HTU21D;64069;46.396;48.102;2023-02-03T06:44:37;0.89;85.84
75489;HTU21D;64069;46.396;48.102;2023-02-03T06:47:03;0.79;85.93
75489;HTU21D;64069;46.396;48.102;2023-02-03T06:49:29;0.81;86.07
75489;HTU21D;64069;46.396;48.102;2023-02-03T06:51:55;0.82;85.96
75489;HTU21D;64069;46.396;48.102;2023-02-03T06:54:21;0.84;85.92
75489;HTU21D;64069;46.396;48.102;2023-02-03T06:56:47;0.88;85.83
75489;HTU21D;64069;46.396;48.102;2023-02-03T06:59:13;0.88;85.77
75489;HTU21D;64069;46.396;48.102;2023-02-03T07:01:40;0.81;85.71
75489;HTU21D;64069;46.396;48.102;2023-02-03T07:04:05;0.74;85.79
75489;HTU21D;64069;46.396;48.102;2023-02-03T07:06:32;0.67;85.93
75489;HTU21D;64069;46.396;48.102;2023-02-03T07:09:00;0.64;85.99
75489;HTU21D;64069;46.396;48.102;2023-02-03T07:11:27;0.65;86.03
75489;HTU21D;64069;46.396;48.102;2023-02-03T07:13:56;0.68;85.93
75489;HTU21D;64069;46.396;48.102;2023-02-03T07:16:22;0.74;85.89
75489;HTU21D;64069;46.396;48.102;2023-02-03T07:18:48;0.80;85.75
75489;HTU21D;64069;46.396;48.102;2023-02-03T07:21:15;0.90;85.60
75489;HTU21D;64069;46.396;48.102;2023-02-03T07:23:42;0.96;85.44
75489;HTU21D;64069;46.396;48.102;2023-02-03T07:26:09;1.08;85.24
75489;HTU21D;64069;46.396;48.102;2023-02-03T07:28:35;1.11;85.02
75489;HTU21D;64069;46.396;48.102;2023-02-03T07:31:02;1.06;84.89
75489;HTU21D;64069;46.396;48.102;2023-02-03T07:33:32;1.04;85.03
75489;HTU21D;64069;46.396;48.102;2023-02-03T07:35:59;1.03;84.98
75489;HTU21D;64069;46.396;48.102;2023-02-03T07:38:26;0.96;84.94
75489;HTU21D;64069;46.396;48.102;2023-02-03T07:40:53;0.87;85.13
75489;HTU21D;64069;46.396;48.102;2023-02-03T07:43:19;0.87;85.22
75489;HTU21D;64069;46.396;48.102;2023-02-03T07:45:45;0.87;85.18
75489;HTU21D;64069;46.396;48.102;2023-02-03T07:48:11;0.95;85.15
75489;HTU21D;64069;46.396;48.102;2023-02-03T07:50:38;1.04;84.90
75489;HTU21D;64069;46.396;48.102;2023-02-03T07:53:04;1.11;84.72
75489;HTU21D;64069;46.396;48.102;2023-02-03T07:55:30;1.12;84.51
75489;HTU21D;64069;46.396;48.102;2023-02-03T07:57:57;1.10;84.55
75489;HTU21D;64069;46.396;48.102;2023-02-03T08:00:24;1.11;84.65
75489;HTU21D;64069;46.396;48.102;2023-02-03T08:02:50;1.11;84.66
75489;HTU21D;64069;46.396;48.102;2023-02-03T08:05:17;1.10;84.57
75489;HTU21D;64069;46.396;48.102;2023-02-03T08:07:44;0.98;84.58
75489;HTU21D;64069;46.396;48.102;2023-02-03T08:10:12;0.88;84.75
75489;HTU21D;64069;46.396;48.102;2023-02-03T08:12:38;0.83;84.90
75489;HTU21D;64069;46.396;48.102;2023-02-03T08:15:05;0.87;85.01
75489;HTU21D;64069;46.396;48.102;2023-02-03T08:17:31;0.96;84.83
75489;HTU21D;64069;46.396;48.102;2023-02-03T08:20:00;0.97;84.66
75489;HTU21D;64069;46.396;48.102;2023-02-03T08:22:27;1.03;84.64
75489;HTU21D;64069;46.396;48.102;2023-02-03T08:24:53;1.03;84.61
75489;HTU21D;64069;46.396;48.102;2023-02-03T08:27:20;1.16;84.62
75489;HTU21D;64069;46.396;48.102;2023-02-03T08:29:47;1.28;84.35
75489;HTU21D;64069;46.396;48.102;2023-02-03T08:32:21;1.40;84.10
75489;HTU21D;64069;46.396;48.102;2023-02-03T08:34:47;1.47;83.90
75489;HTU21D;64069;46.396;48.102;2023-02-03T08:37:16;1.46;83.88
75489;HTU21D;64069;46.396;48.102;2023-02-03T08:39:42;1.41;83.89
75489;HTU21D;64069;46.396;48.102;2023-02-03T08:42:09;1.32;84.00
75489;HTU21D;64069;46.396;48.102;2023-02-03T08:44:35;1.23;84.16
75489;HTU21D;64069;46.396;48.102;2023-02-03T08:47:04;1.29;84.37
75489;HTU21D;64069;46.396;48.102;2023-02-03T08:49:30;1.34;84.13
75489;HTU21D;64069;46.396;48.102;2023-02-03T08:51:57;1.26;84.17
75489;HTU21D;64069;46.396;48.102;2023-02-03T08:54:24;1.20;84.40
75489;HTU21D;64069;46.396;48.102;2023-02-03T08:56:51;1.28;84.60
75489;HTU21D;64069;46.396;48.102;2023-02-03T08:59:17;1.37;84.40
75489;HTU21D;64069;46.396;48.102;2023-02-03T09:01:44;1.41;84.24
75489;HTU21D;64069;46.396;48.102;2023-02-03T09:04:11;1.40;84.21
75489;HTU21D;64069;46.396;48.102;2023-02-03T09:06:41;1.40;84.23
75489;HTU21D;64069;46.396;48.102;2023-02-03T09:09:07;1.36;84.25
75489;HTU21D;64069;46.396;48.102;2023-02-03T09:11:36;1.32;84.30
75489;HTU21D;64069;46.396;48.102;2023-02-03T09:14:02;1.24;84.39
75489;HTU21D;64069;46.396;48.102;2023-02-03T09:16:28;1.19;84.61
75489;HTU21D;64069;46.396;48.102;2023-02-03T09:18:55;1.19;84.64
75489;HTU21D;64069;46.396;48.102;2023-02-03T09:21:21;1.08;84.71
75489;HTU21D;64069;46.396;48.102;2023-02-03T09:23:47;1.02;84.91
75489;HTU21D;64069;46.396;48.102;2023-02-03T09:26:14;0.98;85.08
75489;HTU21D;64069;46.396;48.102;2023-02-03T09:28:40;0.94;85.13
75489;HTU21D;64069;46.396;48.102;2023-02-03T09:31:11;0.96;85.24
75489;HTU21D;64069;46.396;48.102;2023-02-03T09:33:42;0.97;85.16
75489;HTU21D;64069;46.396;48.102;2023-02-03T09:36:09;1.03;85.28
75489;HTU21D;64069;46.396;48.102;2023-02-03T09:38:36;1.11;85.09
75489;HTU21D;64069;46.396;48.102;2023-02-03T09:46:28;1.02;85.13
75489;HTU21D;64069;46.396;48.102;2023-02-03T09:49:03;0.96;85.33
75489;HTU21D;64069;46.396;48.102;2023-02-03T09:51:35;1.03;85.48
75489;HTU21D;64069;46.396;48.102;2023-02-03T09:56:57;1.16;85.26
75489;HTU21D;64069;46.396;48.102;2023-02-03T09:59:26;1.20;85.14
75489;HTU21D;64069;46.396;48.102;2023-02-03T10:02:06;1.28;85.19
75489;HTU21D;64069;46.396;48.102;2023-02-03T10:04:46;1.35;84.90
75489;HTU21D;64069;46.396;48.102;2023-02-03T10:07:33;1.41;84.86
75489;HTU21D;64069;46.396;48.102;2023-02-03T10:17:58;1.33;84.77
75489;HTU21D;64069;46.396;48.102;2023-02-03T10:20:38;1.22;84.84
75489;HTU21D;64069;46.396;48.102;2023-02-03T10:23:16;1.22;85.06
75489;HTU21D;64069;46.396;48.102;2023-02-03T10:25:50;1.22;85.13
75489;HTU21D;64069;46.396;48.102;2023-02-03T10:28:26;1.24;85.07
75489;HTU21D;64069;46.396;48.102;2023-02-03T10:30:59;1.22;85.16
75489;HTU21D;64069;46.396;48.102;2023-02-03T10:33:28;1.18;85.29
75489;HTU21D;64069;46.396;48.102;2023-02-03T10:41:42;1.10;85.53
75489;HTU21D;64069;46.396;48.102;2023-02-03T10:44:11;1.08;85.71
75489;HTU21D;64069;46.396;48.102;2023-02-03T10:46:39;1.18;85.68
75489;HTU21D;64069;46.396;48.102;2023-02-03T10:49:08;1.27;85.59
75489;HTU21D;64069;46.396;48.102;2023-02-03T10:51:51;1.34;85.50
75489;HTU21D;64069;46.396;48.102;2023-02-03T10:54:36;1.41;85.39
75489;HTU21D;64069;46.396;48.102;2023-02-03T10:57:11;1.48;85.26
75489;HTU21D;64069;46.396;48.102;2023-02-03T10:59:44;1.41;85.22
75489;HTU21D;64069;46.396;48.102;2023-02-03T11:02:24;1.39;85.34
75489;HTU21D;64069;46.396;48.102;2023-02-03T11:05:20;1.32;85.48
75489;HTU21D;64069;46.396;48.102;2023-02-03T11:07:50;1.27;85.58
75489;HTU21D;64069;46.396;48.102;2023-02-03T11:10:33;1.20;85.82
75489;HTU21D;64069;46.396;48.102;2023-02-03T11:16:00;1.20;86.01
75489;HTU21D;64069;46.396;48.102;2023-02-03T11:18:45;1.19;86.16
75489;HTU21D;64069;46.396;48.102;2023-02-03T11:21:15;1.19;86.23
75489;HTU21D;64069;46.396;48.102;2023-02-03T11:23:48;1.13;86.25
75489;HTU21D;64069;46.396;48.102;2023-02-03T11:26:49;1.14;86.39
75489;HTU21D;64069;46.396;48.102;2023-02-03T11:29:27;1.21;86.35
75489;HTU21D;64069;46.396;48.102;2023-02-03T11:32:00;1.27;86.10
75489;HTU21D;64069;46.396;48.102;2023-02-03T11:34:33;1.25;86.00
75489;HTU21D;64069;46.396;48.102;2023-02-03T11:37:55;1.21;86.09
75489;HTU21D;64069;46.396;48.102;2023-02-03T11:42:44;1.10;86.17
75489;HTU21D;64069;46.396;48.102;2023-02-03T11:50:50;1.06;86.15
75489;HTU21D;64069;46.396;48.102;2023-02-03T11:54:18;1.14;86.22
75489;HTU21D;64069;46.396;48.102;2023-02-03T11:56:58;1.17;85.99
75489;HTU21D;64069;46.396;48.102;2023-02-03T11:59:35;1.18;85.88
75489;HTU21D;64069;46.396;48.102;2023-02-03T12:05:12;1.11;85.74
75489;HTU21D;64069;46.396;48.102;2023-02-03T12:13:33;1.04;85.54
75489;HTU21D;64069;46.396;48.102;2023-02-03T12:16:26;0.99;85.38
75489;HTU21D;64069;46.396;48.102;2023-02-03T12:30:40;0.96;85.13
75489;HTU21D;64069;46.396;48.102;2023-02-03T12:33:30;0.97;85.03
75489;HTU21D;64069;46.396;48.102;2023-02-03T12:36:19;1.03;85.04
75489;HTU21D;64069;46.396;48.102;2023-02-03T12:41:28;1.02;84.87
75489;HTU21D;64069;46.396;48.102;2023-02-03T12:44:16;1.01;84.89
75489;HTU21D;64069;46.396;48.102;2023-02-03T12:46:54;0.98;84.90
75489;HTU21D;64069;46.396;48.102;2023-02-03T12:49:36;0.98;84.87
75489;HTU21D;64069;46.396;48.102;2023-02-03T12:52:25;0.96;84.86
75489;HTU21D;64069;46.396;48.102;2023-02-03T12:57:43;0.91;84.88
75489;HTU21D;64069;46.396;48.102;2023-02-03T13:00:33;0.86;84.93
75489;HTU21D;64069;46.396;48.102;2023-02-03T13:03:27;0.84;85.03
75489;HTU21D;64069;46.396;48.102;2023-02-03T13:06:10;0.83;85.04
75489;HTU21D;64069;46.396;48.102;2023-02-03T13:11:47;0.72;85.29
75489;HTU21D;64069;46.396;48.102;2023-02-03T13:16:58;0.65;85.51
75489;HTU21D;64069;46.396;48.102;2023-02-03T13:19:29;0.65;85.55
75489;HTU21D;64069;46.396;48.102;2023-02-03T13:22:01;0.64;85.63
75489;HTU21D;64069;46.396;48.102;2023-02-03T13:24:28;0.65;85.73
75489;HTU21D;64069;46.396;48.102;2023-02-03T13:27:23;0.62;85.87
75489;HTU21D;64069;46.396;48.102;2023-02-03T13:30:17;0.58;85.95
75489;HTU21D;64069;46.396;48.102;2023-02-03T13:38:43;0.55;86.21
75489;HTU21D;64069;46.396;48.102;2023-02-03T13:44:02;0.48;86.53
75489;HTU21D;64069;46.396;48.102;2023-02-03T13:46:33;0.46;86.68
75489;HTU21D;64069;46.396;48.102;2023-02-03T13:49:02;0.44;86.75
75489;HTU21D;64069;46.396;48.102;2023-02-03T13:51:34;0.43;86.84
75489;HTU21D;64069;46.396;48.102;2023-02-03T13:54:13;0.40;86.86
75489;HTU21D;64069;46.396;48.102;2023-02-03T13:56:39;0.40;86.87
75489;HTU21D;64069;46.396;48.102;2023-02-03T14:01:41;0.37;87.00
75489;HTU21D;64069;46.396;48.102;2023-02-03T14:06:59;0.33;87.09
75489;HTU21D;64069;46.396;48.102;2023-02-03T14:23:05;0.21;87.51
75489;HTU21D;64069;46.396;48.102;2023-02-03T14:25:45;0.19;87.50
75489;HTU21D;64069;46.396;48.102;2023-02-03T14:28:20;0.20;87.57
75489;HTU21D;64069;46.396;48.102;2023-02-03T14:31:12;0.18;87.70
75489;HTU21D;64069;46.396;48.102;2023-02-03T14:39:02;0.15;87.74
75489;HTU21D;64069;46.396;48.102;2023-02-03T14:47:02;0.10;87.73
75489;HTU21D;64069;46.396;48.102;2023-02-03T14:57:46;0.04;87.87
75489;HTU21D;64069;46.396;48.102;2023-02-03T15:05:46;0.05;87.95
75489;HTU21D;64069;46.396;48.102;2023-02-03T15:08:46;0.04;88.07
75489;HTU21D;64069;46.396;48.102;2023-02-03T15:11:28;0.03;88.15
75489;HTU21D;64069;46.396;48.102;2023-02-03T15:14:40;-0.00;88.30
75489;HTU21D;64069;46.396;48.102;2023-02-03T15:16:42;-0.00;88.34
75489;HTU21D;64069;46.396;48.102;2023-02-03T15:19:16;-0.02;88.40
75489;HTU21D;64069;46.396;48.102;2023-02-03T15:21:44;-0.06;88.58
75489;HTU21D;64069;46.396;48.102;2023-02-03T15:24:15;-0.06;88.55
75489;HTU21D;64069;46.396;48.102;2023-02-03T15:26:54;-0.06;88.57
75489;HTU21D;64069;46.396;48.102;2023-02-03T15:29:33;-0.07;88.57
75489;HTU21D;64069;46.396;48.102;2023-02-03T15:34:43;-0.07;88.62
75489;HTU21D;64069;46.396;48.102;2023-02-03T15:37:23;-0.08;88.65
75489;HTU21D;64069;46.396;48.102;2023-02-03T15:42:28;-0.11;88.58
75489;HTU21D;64069;46.396;48.102;2023-02-03T15:45:04;-0.14;88.70
75489;HTU21D;64069;46.396;48.102;2023-02-03T15:47:37;-0.15;88.89
75489;HTU21D;64069;46.396;48.102;2023-02-03T15:50:26;-0.16;88.88
75489;HTU21D;64069;46.396;48.102;2023-02-03T15:53:02;-0.17;88.99
75489;HTU21D;64069;46.396;48.102;2023-02-03T15:55:45;-0.23;89.08
75489;HTU21D;64069;46.396;48.102;2023-02-03T15:58:27;-0.23;89.09
75489;HTU21D;64069;46.396;48.102;2023-02-03T16:00:56;-0.26;89.09
75489;HTU21D;64069;46.396;48.102;2023-02-03T16:03:47;-0.29;89.15
75489;HTU21D;64069;46.396;48.102;2023-02-03T16:08:43;-0.37;89.33
75489;HTU21D;64069;46.396;48.102;2023-02-03T16:13:49;-0.37;89.42
75489;HTU21D;64069;46.396;48.102;2023-02-03T16:19:05;-0.36;89.47
75489;HTU21D;64069;46.396;48.102;2023-02-03T16:22:03;-0.37;89.50
75489;HTU21D;64069;46.396;48.102;2023-02-03T16:33:15;-0.36;89.53
75489;HTU21D;64069;46.396;48.102;2023-02-03T16:36:10;-0.35;89.65
75489;HTU21D;64069;46.396;48.102;2023-02-03T16:38:57;-0.35;89.66
75489;HTU21D;64069;46.396;48.102;2023-02-03T16:41:41;-0.34;89.61
75489;HTU21D;64069;46.396;48.102;2023-02-03T16:44:26;-0.32;89.57
75489;HTU21D;64069;46.396;48.102;2023-02-03T16:47:37;-0.32;89.71
75489;HTU21D;64069;46.396;48.102;2023-02-03T16:50:26;-0.31;89.92
75489;HTU21D;64069;46.396;48.102;2023-02-03T16:53:16;-0.31;89.81
75489;HTU21D;64069;46.396;48.102;2023-02-03T16:55:42;-0.29;89.88
75489;HTU21D;64069;46.396;48.102;2023-02-03T16:58:08;-0.30;89.76
75489;HTU21D;64069;46.396;48.102;2023-02-03T17:00:40;-0.28;89.76
75489;HTU21D;64069;46.396;48.102;2023-02-03T17:03:08;-0.26;89.76
75489;HTU21D;64069;46.396;48.102;2023-02-03T17:05:39;-0.24;89.81
75489;HTU21D;64069;46.396;48.102;2023-02-03T17:08:06;-0.23;89.79
75489;HTU21D;64069;46.396;48.102;2023-02-03T17:10:37;-0.21;89.79
75489;HTU21D;64069;46.396;48.102;2023-02-03T17:13:07;-0.17;89.87
75489;HTU21D;64069;46.396;48.102;2023-02-03T17:15:44;-0.16;89.87
75489;HTU21D;64069;46.396;48.102;2023-02-03T17:18:11;-0.15;89.92
75489;HTU21D;64069;46.396;48.102;2023-02-03T17:20:40;-0.14;90.02
75489;HTU21D;64069;46.396;48.102;2023-02-03T17:23:07;-0.12;89.99
75489;HTU21D;64069;46.396;48.102;2023-02-03T17:25:34;-0.11;90.14
75489;HTU21D;64069;46.396;48.102;2023-02-03T17:28:06;-0.12;90.08
75489;HTU21D;64069;46.396;48.102;2023-02-03T17:30:33;-0.11;90.15
75489;HTU21D;64069;46.396;48.102;2023-02-03T17:33:05;-0.11;90.14
75489;HTU21D;64069;46.396;48.102;2023-02-03T17:35:43;-0.11;90.15
75489;HTU21D;64069;46.396;48.102;2023-02-03T17:38:12;-0.09;90.16
75489;HTU21D;64069;46.396;48.102;2023-02-03T17:40:42;-0.09;90.13
75489;HTU21D;64069;46.396;48.102;2023-02-03T17:43:08;-0.09;90.05
75489;HTU21D;64069;46.396;48.102;2023-02-03T17:45:38;-0.07;90.05
75489;HTU21D;64069;46.396;48.102;2023-02-03T17:48:05;-0.07;90.02
75489;HTU21D;64069;46.396;48.102;2023-02-03T17:50:30;-0.03;89.96
75489;HTU21D;64069;46.396;48.102;2023-02-03T17:52:56;-0.02;89.99
75489;HTU21D;64069;46.396;48.102;2023-02-03T17:55:26;-0.01;89.99
75489;HTU21D;64069;46.396;48.102;2023-02-03T17:57:52;-0.01;89.94
75489;HTU21D;64069;46.396;48.102;2023-02-03T18:00:18;-0.00;89.90
75489;HTU21D;64069;46.396;48.102;2023-02-03T18:02:50;-0.01;89.95
75489;HTU21D;64069;46.396;48.102;2023-02-03T18:05:17;-0.00;89.93
75489;HTU21D;64069;46.396;48.102;2023-02-03T18:07:44;-0.01;89.98